San Angelo's Hourly Summary for Thursday, May 10, 2018
Hour Temp
(f)
RH
(%)
Solar Rad.
(MJ/m2)
Rainfall
(in)
Wind
(mph)
5/10/2018 12:00 AM 76 42 0 0 8.05
5/10/2018 1:00 AM 74 48 0 0 8.61
5/10/2018 2:00 AM 73 50 0 0 8.04
5/10/2018 3:00 AM 72 51 0 0 8.81
5/10/2018 4:00 AM 70 57 0 0 9.01
5/10/2018 5:00 AM 68 66 0 0 8.06
5/10/2018 6:00 AM 67 74 0 0 8.81
5/10/2018 7:00 AM 66 79 0 0 8.46
5/10/2018 8:00 AM 66 80 0.28 0 7.72
5/10/2018 9:00 AM 68 73 0.93 0 10.34
5/10/2018 10:00 AM 72 64 1.62 0 11.87
5/10/2018 11:00 AM 75 56 2.37 0 13.17
5/10/2018 12:00 PM 78 46 2.74 0 13.16
5/10/2018 1:00 PM 82 42 3.19 0 12.6
5/10/2018 2:00 PM 85 36 3.31 0 11.47
5/10/2018 3:00 PM 87 33 3.22 0 12.39
5/10/2018 4:00 PM 89 30 2.97 0 13.02
5/10/2018 5:00 PM 90 26 2.44 0 13.11
5/10/2018 6:00 PM 90 27 1.81 0 12.2
5/10/2018 7:00 PM 89 28 1.07 0 13.49
5/10/2018 8:00 PM 87 26 0.33 0 13.13
5/10/2018 9:00 PM 84 30 0.02 0 11.8
5/10/2018 10:00 PM 81 33 0 0 12.08
5/10/2018 11:00 PM 78 37 0 0 10.53
Data Summary 77 47 26.30 0.00 10.83